createdAt,value
2018-11-23T08:56:05.493Z,1.00
2018-11-23T08:58:33.770Z,1.10
2018-11-23T09:01:02.034Z,1.20
2018-11-23T09:03:30.309Z,1.20
2018-11-23T09:05:58.609Z,1.30
2018-11-23T09:08:27.013Z,1.20
2018-11-23T09:10:55.413Z,1.20
2018-11-23T09:13:23.823Z,1.30
2018-11-23T09:15:52.214Z,1.30
2018-11-23T09:18:20.708Z,1.30
2018-11-23T09:20:49.103Z,1.30
2018-11-23T09:23:17.366Z,1.40
2018-11-23T09:25:45.673Z,1.50
2018-11-23T09:28:13.962Z,1.70
2018-11-23T09:30:42.225Z,1.70
2018-11-23T09:33:10.553Z,1.80
2018-11-23T09:35:38.925Z,1.80
2018-11-23T09:38:07.332Z,1.80
2018-11-23T09:40:35.637Z,1.80
2018-11-23T09:43:03.960Z,1.80
2018-11-23T09:45:33.393Z,1.80
2018-11-23T09:48:03.028Z,1.80
2018-11-23T09:50:31.401Z,1.80
2018-11-23T09:53:01.158Z,1.70
2018-11-23T09:55:30.469Z,1.70
2018-11-23T09:57:58.790Z,1.70
2018-11-23T10:00:30.519Z,1.80
2018-11-23T10:02:59.497Z,1.80
2018-11-23T10:05:28.710Z,2.00
2018-11-23T10:07:59.230Z,2.10
2018-11-23T10:10:28.173Z,2.10
2018-11-23T10:12:56.459Z,2.20
2018-11-23T10:15:25.645Z,2.20
2018-11-23T10:17:53.930Z,2.20
2018-11-23T10:20:27.494Z,2.20
2018-11-23T10:22:55.873Z,2.20
2018-11-23T10:25:25.665Z,2.20
2018-11-23T10:27:53.941Z,2.20
2018-11-23T10:30:23.645Z,2.20
2018-11-23T10:32:53.146Z,2.20
2018-11-23T10:35:21.457Z,2.20
2018-11-23T10:37:51.235Z,2.30
2018-11-23T10:40:21.668Z,2.40
2018-11-23T10:42:49.958Z,2.60
2018-11-23T10:45:20.210Z,2.70
2018-11-23T10:47:49.149Z,2.70
2018-11-23T10:50:18.766Z,2.50
2018-11-23T10:52:47.030Z,2.50
2018-11-23T10:55:17.474Z,2.60
2018-11-23T10:57:45.831Z,2.70
2018-11-23T11:00:23.113Z,2.90
2018-11-23T11:02:57.993Z,2.90
2018-11-23T11:05:31.598Z,2.80
2018-11-23T11:08:01.382Z,2.90
2018-11-23T11:10:29.822Z,3.00
2018-11-23T11:12:58.264Z,3.00
2018-11-23T11:15:26.586Z,3.00
2018-11-23T11:17:54.886Z,3.10
2018-11-23T11:20:23.194Z,3.10
2018-11-23T11:22:51.477Z,3.00
2018-11-23T11:25:19.861Z,3.00
2018-11-23T11:27:48.158Z,3.00
2018-11-23T11:30:17.422Z,2.90
2018-11-23T11:32:46.354Z,2.90
2018-11-23T11:35:14.685Z,2.80
2018-11-23T11:37:43.436Z,2.70
2018-11-23T11:40:13.098Z,2.70
2018-11-23T11:42:41.902Z,2.70
2018-11-23T11:45:12.173Z,2.70
2018-11-23T11:47:40.690Z,2.80
2018-11-23T11:50:10.076Z,2.80
2018-11-23T11:52:39.714Z,2.80
2018-11-23T11:55:09.594Z,2.80
2018-11-23T11:57:38.073Z,2.80
2018-11-23T12:00:08.529Z,2.60
2018-11-23T12:02:36.818Z,2.60
2018-11-23T12:05:06.277Z,2.60
2018-11-23T12:07:34.542Z,2.60
2018-11-23T12:10:02.873Z,2.60
2018-11-23T12:12:31.154Z,2.70
2018-11-23T12:14:59.420Z,2.70
2018-11-23T12:17:27.690Z,2.80
2018-11-23T12:19:55.952Z,2.70
2018-11-23T12:22:24.219Z,2.70
2018-11-23T12:24:52.533Z,2.70
2018-11-23T12:27:20.798Z,2.60
2018-11-23T12:29:49.072Z,2.50
2018-11-23T12:32:17.352Z,2.40
2018-11-23T12:34:45.628Z,2.30
2018-11-23T12:37:13.928Z,2.40
2018-11-23T12:39:42.212Z,2.40
2018-11-23T12:42:10.502Z,2.50
2018-11-23T12:44:39.862Z,2.50
2018-11-23T12:47:07.057Z,2.40
2018-11-23T12:49:35.369Z,2.40
2018-11-23T12:52:03.659Z,2.40
2018-11-23T12:54:31.962Z,2.40
2018-11-23T12:57:00.237Z,2.40
2018-11-23T12:59:28.517Z,2.50
2018-11-23T13:01:56.831Z,2.60
2018-11-23T13:04:25.241Z,2.60
2018-11-23T13:06:53.556Z,2.60
2018-11-23T13:09:21.893Z,2.60
2018-11-23T13:11:50.202Z,2.60
2018-11-23T13:14:18.489Z,2.60
2018-11-23T13:16:46.773Z,2.60
2018-11-23T13:19:15.046Z,2.60
2018-11-23T13:21:43.333Z,2.70
2018-11-23T13:24:11.609Z,2.70
2018-11-23T13:26:39.895Z,2.70
2018-11-23T13:29:16.074Z,2.70
2018-11-23T13:31:36.494Z,2.70
2018-11-23T13:34:04.790Z,2.60
2018-11-23T13:36:33.069Z,2.60
2018-11-23T13:39:01.386Z,2.50
2018-11-23T13:41:29.653Z,2.60
2018-11-23T13:43:57.937Z,2.60
2018-11-23T13:46:26.225Z,2.60
2018-11-23T13:48:54.509Z,2.60
2018-11-23T13:51:22.778Z,2.70
2018-11-23T13:53:51.062Z,2.70
2018-11-23T13:56:19.325Z,2.70
2018-11-23T13:58:47.614Z,2.70
2018-11-23T14:01:15.879Z,2.70
2018-11-23T14:03:44.145Z,2.60
2018-11-23T14:06:12.430Z,2.50
2018-11-23T14:08:40.697Z,2.60
2018-11-23T14:11:08.981Z,2.60
2018-11-23T14:13:37.266Z,2.60
2018-11-23T14:16:06.254Z,2.50
2018-11-23T14:18:34.542Z,2.50
2018-11-23T14:21:02.795Z,2.40
2018-11-23T14:23:31.063Z,2.40
2018-11-23T14:25:59.333Z,2.30
2018-11-23T14:28:27.609Z,2.30
2018-11-23T14:30:55.869Z,2.40
2018-11-23T14:33:24.141Z,2.40
2018-11-23T14:35:52.413Z,2.40
2018-11-23T14:38:20.691Z,2.50
2018-11-23T14:40:48.988Z,2.50
2018-11-23T14:43:17.282Z,2.50
2018-11-23T14:45:45.665Z,2.50
2018-11-23T14:48:13.937Z,2.50
2018-11-23T14:50:48.985Z,2.50
2018-11-23T14:53:17.362Z,2.50
2018-11-23T14:55:45.718Z,2.60
2018-11-23T14:58:13.979Z,2.60
2018-11-23T15:00:42.381Z,2.60
2018-11-23T15:03:10.685Z,2.70
2018-11-23T15:05:39.261Z,2.70
2018-11-23T15:08:08.046Z,2.80
2018-11-23T15:10:36.731Z,2.80
2018-11-23T15:13:06.267Z,2.80
2018-11-23T15:15:36.723Z,2.80
2018-11-23T15:18:05.410Z,2.80
2018-11-23T15:20:40.115Z,2.80
2018-11-23T15:23:16.818Z,2.70
2018-11-23T15:25:45.184Z,2.70
2018-11-23T15:28:14.023Z,2.60
2018-11-23T15:30:43.110Z,2.60
2018-11-23T15:33:12.926Z,2.60
2018-11-23T15:35:41.976Z,2.60
2018-11-23T15:38:12.069Z,2.60
2018-11-23T15:40:40.451Z,2.60
2018-11-23T15:43:10.229Z,2.60
2018-11-23T15:45:38.553Z,2.70
2018-11-23T15:48:07.615Z,2.70
2018-11-23T15:50:37.326Z,2.70
2018-11-23T15:53:07.060Z,2.70
2018-11-23T15:55:36.062Z,2.70
2018-11-23T15:58:05.835Z,2.80
2018-11-23T16:00:35.487Z,2.80
2018-11-23T16:03:03.933Z,2.90
2018-11-23T16:05:32.300Z,2.80
2018-11-23T16:08:02.245Z,2.90
2018-11-23T16:10:31.829Z,2.90
2018-11-23T16:13:01.018Z,2.90
2018-11-23T16:15:29.702Z,2.90
2018-11-23T16:17:58.644Z,2.90
2018-11-23T16:20:29.449Z,2.90
2018-11-23T16:22:59.126Z,2.90
2018-11-23T16:25:27.453Z,2.80
2018-11-23T16:27:58.970Z,2.70
2018-11-23T16:30:28.472Z,2.70
2018-11-23T16:32:57.891Z,2.80
2018-11-23T16:35:27.487Z,2.80
2018-11-23T16:37:56.798Z,2.90
2018-11-23T16:40:26.517Z,2.90
2018-11-23T16:42:55.689Z,2.90
2018-11-23T16:45:26.304Z,2.90
2018-11-23T16:47:55.421Z,2.90
2018-11-23T16:50:23.870Z,2.90
2018-11-23T16:52:52.490Z,2.80
2018-11-23T16:55:21.454Z,2.90
2018-11-23T16:57:51.410Z,2.90
2018-11-23T17:00:22.041Z,3.00
2018-11-23T17:02:50.312Z,2.90
2018-11-23T17:05:20.114Z,2.90
2018-11-23T17:07:48.384Z,2.90
2018-11-23T17:10:17.445Z,2.90
2018-11-23T17:12:45.989Z,2.90
2018-11-23T17:15:15.553Z,3.00
2018-11-23T17:17:43.994Z,3.00
2018-11-23T17:20:15.101Z,2.90
2018-11-23T17:22:44.541Z,2.90
2018-11-23T17:25:14.072Z,2.90
2018-11-23T17:27:42.507Z,2.80
2018-11-23T17:30:12.691Z,2.70
2018-11-23T17:32:41.051Z,2.60
2018-11-23T17:35:10.098Z,2.70
2018-11-23T17:37:38.920Z,2.70
2018-11-23T17:40:08.743Z,2.70
2018-11-23T17:42:37.017Z,2.60
2018-11-23T17:45:08.150Z,2.50
2018-11-23T17:47:36.549Z,2.60
2018-11-23T17:50:06.510Z,2.50
2018-11-23T17:52:34.781Z,2.50
2018-11-23T17:55:03.059Z,2.50
2018-11-23T17:57:31.348Z,2.40
2018-11-23T17:59:59.646Z,2.40
2018-11-23T18:02:30.197Z,2.40
2018-11-23T18:04:58.517Z,2.30
2018-11-23T18:07:26.781Z,2.30
2018-11-23T18:09:55.109Z,2.20
2018-11-23T18:12:23.377Z,2.20
2018-11-23T18:14:51.663Z,2.20
2018-11-23T18:17:19.941Z,2.20
2018-11-23T18:19:48.221Z,2.20
2018-11-23T18:22:16.497Z,2.20
2018-11-23T18:24:44.804Z,2.20
2018-11-23T18:27:13.074Z,2.30
2018-11-23T18:29:41.349Z,2.30
2018-11-23T18:32:09.622Z,2.30
2018-11-23T18:34:37.901Z,2.30
2018-11-23T18:37:06.218Z,2.30
2018-11-23T18:39:34.549Z,2.30
2018-11-23T18:42:02.833Z,2.30
2018-11-23T18:44:31.093Z,2.30
2018-11-23T18:46:59.353Z,2.20
2018-11-23T18:49:27.634Z,2.20
2018-11-23T18:51:55.920Z,2.30
2018-11-23T18:54:24.174Z,2.30
2018-11-23T18:56:52.560Z,2.30
2018-11-23T18:59:20.752Z,2.30
2018-11-23T19:01:49.049Z,2.30
2018-11-23T19:04:17.299Z,2.30
2018-11-23T19:06:45.601Z,2.30
2018-11-23T19:09:13.877Z,2.30
2018-11-23T19:11:42.149Z,2.40
2018-11-23T19:14:10.413Z,2.40
2018-11-23T19:16:38.696Z,2.30
2018-11-23T19:19:06.957Z,2.30
2018-11-23T19:21:35.239Z,2.30
2018-11-23T19:24:03.581Z,2.40
2018-11-23T19:26:31.865Z,2.40
2018-11-23T19:29:00.142Z,2.40
2018-11-23T19:31:28.429Z,2.40
2018-11-23T19:33:59.422Z,2.40
2018-11-23T19:36:25.002Z,2.40
2018-11-23T19:38:53.266Z,2.40
2018-11-23T19:41:21.536Z,2.40
2018-11-23T19:43:49.854Z,2.40
2018-11-23T19:46:18.122Z,2.30
2018-11-23T19:48:46.393Z,2.40
2018-11-23T19:51:14.674Z,2.50
2018-11-23T19:53:42.945Z,2.50
2018-11-23T19:56:11.205Z,2.50
2018-11-23T19:58:39.502Z,2.50
2018-11-23T20:01:07.782Z,2.50
2018-11-23T20:03:36.186Z,2.50
2018-11-23T20:06:04.481Z,2.40
2018-11-23T20:08:34.600Z,2.40
2018-11-23T20:11:02.870Z,2.50
2018-11-23T20:13:31.142Z,2.60
2018-11-23T20:15:59.406Z,2.60
2018-11-23T20:18:27.681Z,2.60
2018-11-23T20:20:56.001Z,2.60
2018-11-23T20:23:24.279Z,2.60
2018-11-23T20:25:52.806Z,2.50
2018-11-23T20:28:21.074Z,2.60
2018-11-23T20:30:49.334Z,2.60
2018-11-23T20:33:17.673Z,2.60
2018-11-23T20:35:46.014Z,2.60
2018-11-23T20:38:14.303Z,2.60
2018-11-23T20:40:44.074Z,2.50
2018-11-23T20:43:15.597Z,2.50
2018-11-23T20:45:49.022Z,2.60
2018-11-23T20:48:17.304Z,2.60
2018-11-23T20:50:45.577Z,2.60
2018-11-23T20:53:13.870Z,2.60
2018-11-23T20:55:42.745Z,2.60
2018-11-23T20:58:11.089Z,2.60
2018-11-23T21:00:39.370Z,2.60
2018-11-23T21:03:07.828Z,2.60
2018-11-23T21:05:36.153Z,2.50
2018-11-23T21:08:04.605Z,2.50
2018-11-23T21:10:32.881Z,2.50
2018-11-23T21:13:01.162Z,2.50
2018-11-23T21:15:30.373Z,2.40
2018-11-23T21:18:01.876Z,2.50
2018-11-23T21:20:30.126Z,2.50
2018-11-23T21:22:58.684Z,2.50
2018-11-23T21:25:26.977Z,2.50
2018-11-23T21:27:55.308Z,2.40
2018-11-23T21:30:24.815Z,2.40
2018-11-23T21:32:55.211Z,2.40
2018-11-23T21:35:23.498Z,2.50
2018-11-23T21:37:51.779Z,2.50
2018-11-23T21:40:20.099Z,2.40
2018-11-23T21:42:49.393Z,2.50
2018-11-23T21:45:18.790Z,2.50
2018-11-23T21:47:47.247Z,2.50
2018-11-23T21:50:16.393Z,2.60
2018-11-23T21:52:44.743Z,2.60
2018-11-23T21:55:18.386Z,2.60
2018-11-23T21:57:46.723Z,2.60
2018-11-23T22:00:15.736Z,2.60
2018-11-23T22:02:44.101Z,2.50
2018-11-23T22:05:12.436Z,2.50
2018-11-23T22:07:41.050Z,2.50
2018-11-23T22:10:12.637Z,2.50
2018-11-23T22:12:40.958Z,2.50
2018-11-23T22:15:11.835Z,2.50
2018-11-23T22:17:40.194Z,2.40
2018-11-23T22:20:10.996Z,2.50
2018-11-23T22:22:39.329Z,2.60
2018-11-23T22:25:12.768Z,2.80
2018-11-23T22:27:41.130Z,2.70
2018-11-23T22:30:14.812Z,2.70
2018-11-23T22:32:43.117Z,2.60
2018-11-23T22:35:12.282Z,2.60
2018-11-23T22:37:40.565Z,2.60
2018-11-23T22:40:11.172Z,2.60
2018-11-23T22:42:39.572Z,2.50
2018-11-23T22:45:09.478Z,2.50
2018-11-23T22:47:37.809Z,2.40
2018-11-23T22:50:08.498Z,2.40
2018-11-23T22:52:36.799Z,2.40
2018-11-23T22:55:08.737Z,2.50
2018-11-23T22:57:37.169Z,2.60
2018-11-23T23:00:30.834Z,2.60
2018-11-23T23:02:59.178Z,2.70
2018-11-23T23:05:27.510Z,2.60
2018-11-23T23:07:55.787Z,2.60
2018-11-23T23:10:24.057Z,2.70
2018-11-23T23:12:52.355Z,2.70
2018-11-23T23:15:20.641Z,2.60
2018-11-23T23:17:49.061Z,2.50
2018-11-23T23:20:18.463Z,2.50
2018-11-23T23:22:46.749Z,2.50
2018-11-23T23:25:15.054Z,2.50
2018-11-23T23:27:43.330Z,2.50
2018-11-23T23:30:14.762Z,2.40
2018-11-23T23:32:43.145Z,2.40
2018-11-23T23:35:12.480Z,2.40
2018-11-23T23:37:41.078Z,2.40
2018-11-23T23:40:15.467Z,2.50
2018-11-23T23:42:43.747Z,2.50
2018-11-23T23:45:13.202Z,2.50
2018-11-23T23:47:41.483Z,2.50
2018-11-23T23:50:12.091Z,2.60
2018-11-23T23:52:40.361Z,2.60
2018-11-23T23:55:09.331Z,2.50
2018-11-23T23:57:37.805Z,2.50
